Time;durP1;ratioP1;P1;durP2;ratioP2;P2;SDS_P1;SDS_P2;PMS_P1;PMS_P2;Temp;Humidity;BMP_temperature;BMP_pressure;BME280_temperature;BME280_humidity;BME280_pressure;Samples;Min_cycle;Max_cycle;Signal;HPM_P1;HPM_P2
2023/08/02 00:00:39;;;;;;;5.22;1.90;;;17.40;99.90;;;;;;5067251;28;20131;-42
2023/08/02 00:03:05;;;;;;;3.83;1.98;;;17.40;99.90;;;;;;5054961;28;20407;-42
2023/08/02 00:05:31;;;;;;;4.82;2.35;;;17.40;99.90;;;;;;5068030;28;20020;-42
2023/08/02 00:08:00;;;;;;;3.30;1.90;;;17.40;99.90;;;;;;5055956;28;20049;-42
2023/08/02 00:10:25;;;;;;;3.65;2.38;;;17.40;99.90;;;;;;5067020;28;20025;-42
2023/08/02 00:12:54;;;;;;;4.18;2.22;;;17.30;99.90;;;;;;5061339;28;20039;-43
2023/08/02 00:15:20;;;;;;;3.33;2.00;;;17.30;99.90;;;;;;5067112;28;20383;-43
2023/08/02 00:17:46;;;;;;;4.45;2.08;;;17.30;99.90;;;;;;5060661;28;20020;-42
2023/08/02 00:20:12;;;;;;;4.70;2.05;;;17.30;99.90;;;;;;5062319;28;20101;-43
2023/08/02 00:22:38;;;;;;;5.72;2.30;;;17.30;99.90;;;;;;5062653;28;20021;-42
2023/08/02 00:25:04;;;;;;;5.03;2.38;;;17.30;99.90;;;;;;5059187;28;20031;-41
2023/08/02 00:27:29;;;;;;;5.95;2.42;;;17.20;99.90;;;;;;5066144;28;20035;-42
2023/08/02 00:29:55;;;;;;;5.38;2.35;;;17.20;99.90;;;;;;5056217;28;20078;-42
2023/08/02 00:32:20;;;;;;;3.03;2.30;;;17.20;99.90;;;;;;5065845;28;20035;-42
2023/08/02 00:34:46;;;;;;;3.38;2.10;;;17.20;99.90;;;;;;5056266;28;20024;-42
2023/08/02 00:37:12;;;;;;;3.50;2.10;;;17.20;99.90;;;;;;5066448;28;20107;-42
2023/08/02 00:39:38;;;;;;;5.47;2.08;;;17.20;99.90;;;;;;5054734;28;20146;-42
2023/08/02 00:42:03;;;;;;;3.67;2.00;;;17.10;99.90;;;;;;5067867;28;20553;-42
2023/08/02 00:44:32;;;;;;;6.53;2.40;;;17.10;99.90;;;;;;5053972;28;20052;-42
2023/08/02 00:46:58;;;;;;;6.57;2.67;;;17.10;99.90;;;;;;5067265;28;20036;-42
2023/08/02 00:49:24;;;;;;;3.78;2.22;;;17.10;99.90;;;;;;5054825;28;20025;-42
2023/08/02 00:51:49;;;;;;;3.28;1.95;;;17.10;99.90;;;;;;5065384;28;20055;-42
2023/08/02 00:54:17;;;;;;;5.15;2.00;;;17.00;99.90;;;;;;5057583;28;20016;-42
2023/08/02 00:56:43;;;;;;;3.72;2.30;;;17.10;99.90;;;;;;5063449;28;20032;-42
2023/08/02 00:59:09;;;;;;;4.50;2.38;;;17.00;99.90;;;;;;5060436;28;20025;-41
2023/08/02 01:01:37;;;;;;;3.25;2.08;;;17.00;99.90;;;;;;5061338;28;20101;-42
2023/08/02 01:04:06;;;;;;;5.22;2.40;;;17.00;99.90;;;;;;5061550;28;20025;-41
2023/08/02 01:07:16;;;;;;;3.47;2.17;;;17.00;99.90;;;;;;5058448;28;20028;-42
2023/08/02 01:10:13;;;;;;;5.20;2.20;;;17.10;99.90;;;;;;4956476;28;20039;-42
2023/08/02 01:12:45;;;;;;;4.68;2.13;;;17.10;99.90;;;;;;4961767;28;20848;-42
2023/08/02 01:15:13;;;;;;;5.28;2.20;;;17.10;99.90;;;;;;5032862;28;20037;-41
2023/08/02 01:17:39;;;;;;;5.20;2.20;;;17.10;99.90;;;;;;5047195;28;20544;-41
2023/08/02 01:20:05;;;;;;;5.32;2.33;;;17.10;99.90;;;;;;5055125;28;20103;-42
2023/08/02 01:22:31;;;;;;;5.38;2.38;;;17.10;99.90;;;;;;5050234;28;20025;-42
2023/08/02 01:24:59;;;;;;;5.45;2.40;;;17.00;99.90;;;;;;5051796;28;20099;-41
2023/08/02 01:27:30;;;;;;;4.57;2.70;;;17.00;99.90;;;;;;5051676;28;20021;-42
2023/08/02 01:29:57;;;;;;;4.57;2.38;;;17.00;99.90;;;;;;5050483;28;20602;-42
2023/08/02 01:32:23;;;;;;;7.75;2.97;;;16.90;99.90;;;;;;5053123;28;20396;-42
2023/08/02 01:34:50;;;;;;;4.10;2.20;;;16.90;99.90;;;;;;5047948;28;20017;-42
2023/08/02 01:37:16;;;;;;;3.20;2.42;;;16.90;99.90;;;;;;5056412;28;20389;-42
2023/08/02 01:39:42;;;;;;;4.80;2.58;;;16.80;99.90;;;;;;5046350;28;20017;-42
2023/08/02 01:42:09;;;;;;;5.05;2.22;;;16.80;99.90;;;;;;5057436;28;20695;-42
2023/08/02 01:44:34;;;;;;;4.30;2.30;;;16.70;99.90;;;;;;5047707;28;20048;-41
2023/08/02 01:47:00;;;;;;;5.82;2.38;;;16.70;99.90;;;;;;5057125;28;20021;-41
2023/08/02 01:49:26;;;;;;;4.72;2.05;;;16.70;99.90;;;;;;5047292;28;20036;-42
2023/08/02 01:51:51;;;;;;;4.82;2.60;;;16.60;99.90;;;;;;5058569;28;20081;-42
2023/08/02 01:54:17;;;;;;;5.13;2.60;;;16.70;99.90;;;;;;5044851;28;20425;-42
2023/08/02 01:56:42;;;;;;;5.97;2.70;;;16.60;99.90;;;;;;5058126;28;20063;-41
2023/08/02 01:59:08;;;;;;;4.13;2.40;;;16.70;99.90;;;;;;5046207;28;20168;-42
2023/08/02 02:01:33;;;;;;;4.53;2.50;;;16.80;99.90;;;;;;5054559;28;20082;-42
2023/08/02 02:03:59;;;;;;;5.43;2.35;;;16.80;99.90;;;;;;5048819;28;20128;-41
2023/08/02 02:06:25;;;;;;;4.70;2.28;;;16.90;99.90;;;;;;5052179;28;20059;-41
2023/08/02 02:08:53;;;;;;;5.28;2.58;;;16.90;99.90;;;;;;5049965;28;20060;-41
2023/08/02 02:11:19;;;;;;;4.68;2.15;;;16.90;99.90;;;;;;5050587;28;20149;-42
2023/08/02 02:13:44;;;;;;;6.38;2.42;;;17.00;99.90;;;;;;5062499;28;20441;-42
2023/08/02 02:16:13;;;;;;;4.10;2.00;;;17.00;99.90;;;;;;5062312;28;20107;-42
2023/08/02 02:18:39;;;;;;;2.92;1.80;;;17.00;99.90;;;;;;5055799;28;20112;-42
2023/08/02 02:21:04;;;;;;;3.42;1.80;;;17.00;99.90;;;;;;5063037;28;20136;-42
2023/08/02 02:23:30;;;;;;;4.68;2.03;;;16.90;99.90;;;;;;5054216;28;20103;-43
2023/08/02 02:25:55;;;;;;;4.28;2.30;;;16.90;99.90;;;;;;5064547;28;20056;-43
2023/08/02 02:28:21;;;;;;;5.28;2.13;;;16.90;99.90;;;;;;5052919;28;20028;-43
2023/08/02 02:30:48;;;;;;;5.13;2.22;;;16.80;99.90;;;;;;5064978;28;20035;-42
2023/08/02 02:33:17;;;;;;;3.80;1.90;;;16.80;99.90;;;;;;5052520;28;20028;-43
2023/08/02 02:35:42;;;;;;;3.97;2.00;;;16.80;99.90;;;;;;5064050;28;20118;-42
2023/08/02 02:38:08;;;;;;;3.95;2.00;;;16.80;99.90;;;;;;5052417;28;20155;-42
2023/08/02 02:40:33;;;;;;;3.63;1.80;;;16.80;99.90;;;;;;5065295;28;20035;-43
2023/08/02 02:42:59;;;;;;;5.97;2.38;;;16.80;99.90;;;;;;5054666;28;20034;-42
2023/08/02 02:45:31;;;;;;;3.03;1.85;;;16.80;99.90;;;;;;5063206;28;20073;-41
2023/08/02 02:47:56;;;;;;;3.97;1.97;;;16.70;99.90;;;;;;5057842;28;20071;-41
2023/08/02 02:50:22;;;;;;;3.00;1.90;;;16.70;99.90;;;;;;5060258;28;20259;-41
2023/08/02 02:52:47;;;;;;;2.70;1.75;;;16.80;99.90;;;;;;5060041;28;20029;-42
2023/08/02 02:55:13;;;;;;;5.70;2.40;;;16.80;99.90;;;;;;5057783;28;20024;-42
2023/08/02 02:57:39;;;;;;;3.15;2.08;;;16.80;99.90;;;;;;5061676;28;20632;-41
2023/08/02 03:00:05;;;;;;;2.95;1.90;;;16.80;99.90;;;;;;5054964;28;20514;-41
2023/08/02 03:02:31;;;;;;;3.67;2.00;;;16.80;99.90;;;;;;5063491;28;20606;-42
2023/08/02 03:04:57;;;;;;;3.33;1.95;;;16.80;99.90;;;;;;5053089;28;20044;-41
2023/08/02 03:07:22;;;;;;;3.15;1.83;;;16.80;99.90;;;;;;5062742;28;20071;-41
2023/08/02 03:09:48;;;;;;;3.90;1.83;;;16.90;99.90;;;;;;5053999;28;20023;-41
2023/08/02 03:12:13;;;;;;;2.28;1.67;;;16.80;99.90;;;;;;5066485;28;20237;-41
2023/08/02 03:14:39;;;;;;;2.78;1.88;;;16.80;99.90;;;;;;5056163;28;20033;-42
2023/08/02 03:17:05;;;;;;;2.05;1.67;;;16.80;99.90;;;;;;5069444;28;20040;-42
2023/08/02 03:19:30;;;;;;;3.63;1.80;;;16.80;99.90;;;;;;5055611;28;20052;-42
2023/08/02 03:21:56;;;;;;;2.45;1.77;;;16.80;99.90;;;;;;5069311;28;20474;-42
2023/08/02 03:24:21;;;;;;;2.20;1.77;;;16.80;99.90;;;;;;5058123;28;20047;-43
2023/08/02 03:26:47;;;;;;;2.33;1.70;;;16.70;99.90;;;;;;5065935;28;20025;-43
2023/08/02 03:29:12;;;;;;;2.30;1.65;;;16.70;99.90;;;;;;5061326;28;20500;-42
2023/08/02 03:31:42;;;;;;;5.05;1.90;;;16.70;99.90;;;;;;5062399;28;20036;-42
2023/08/02 03:34:08;;;;;;;3.47;1.70;;;16.70;99.90;;;;;;5063535;28;20025;-42
2023/08/02 03:36:33;;;;;;;2.75;1.90;;;16.60;99.90;;;;;;5060980;28;20020;-42
2023/08/02 03:39:02;;;;;;;2.20;1.60;;;16.60;99.90;;;;;;5065229;28;20772;-41
2023/08/02 03:41:27;;;;;;;2.40;1.50;;;16.70;99.90;;;;;;5058798;28;20024;-42
2023/08/02 03:43:53;;;;;;;1.95;1.40;;;16.60;99.90;;;;;;5066708;28;20473;-42
2023/08/02 03:46:18;;;;;;;3.47;1.80;;;16.60;99.90;;;;;;5056532;28;20052;-42
2023/08/02 03:48:44;;;;;;;3.35;1.77;;;16.60;99.90;;;;;;5066264;28;20419;-42
2023/08/02 03:51:10;;;;;;;3.78;1.80;;;16.70;99.90;;;;;;5057276;28;20035;-42
2023/08/02 03:53:35;;;;;;;2.85;1.73;;;16.70;99.90;;;;;;5067715;28;20028;-41
2023/08/02 03:56:01;;;;;;;3.97;1.83;;;16.70;99.90;;;;;;5055359;28;20552;-41
2023/08/02 03:58:26;;;;;;;5.90;1.90;;;16.80;99.90;;;;;;5068565;28;20079;-42
2023/08/02 04:00:52;;;;;;;2.97;1.90;;;16.80;99.90;;;;;;5054913;28;20017;-43
2023/08/02 04:03:18;;;;;;;4.53;2.20;;;16.80;99.90;;;;;;5067988;28;20848;-41
2023/08/02 04:05:43;;;;;;;5.50;2.10;;;16.80;99.90;;;;;;5058265;28;20079;-42
2023/08/02 04:08:12;;;;;;;3.35;1.85;;;16.80;99.90;;;;;;5064027;28;20052;-42
2023/08/02 04:10:37;;;;;;;3.60;1.75;;;16.80;99.90;;;;;;5060380;28;20017;-41
2023/08/02 04:13:04;;;;;;;4.63;2.10;;;16.80;99.90;;;;;;5060819;28;20037;-42
2023/08/02 04:15:36;;;;;;;5.05;1.90;;;16.80;99.90;;;;;;5052072;28;20021;-41
2023/08/02 04:18:17;;;;;;;;;;;16.80;99.90;;;;;;5054842;28;20029;-42
2023/08/02 04:20:49;;;;;;;2.78;1.95;;;16.90;99.90;;;;;;5054992;28;20023;-42
2023/08/02 04:23:17;;;;;;;3.10;1.90;;;16.90;99.90;;;;;;5060159;28;20480;-41
2023/08/02 04:25:42;;;;;;;3.47;2.10;;;16.90;99.90;;;;;;5063530;28;20028;-42
2023/08/02 04:28:08;;;;;;;3.97;2.10;;;17.00;99.90;;;;;;5058112;28;20048;-41
2023/08/02 04:30:33;;;;;;;3.50;2.00;;;17.00;99.90;;;;;;5066446;28;20033;-42
2023/08/02 04:32:59;;;;;;;4.30;1.88;;;17.00;99.90;;;;;;5053725;28;20033;-42
2023/08/02 04:35:25;;;;;;;4.32;2.30;;;17.00;99.90;;;;;;5047881;28;20033;-42
2023/08/02 04:37:50;;;;;;;4.97;2.03;;;17.00;99.90;;;;;;5056336;28;20098;-42
2023/08/02 04:40:16;;;;;;;3.65;2.05;;;17.00;99.90;;;;;;5067124;28;20027;-42
2023/08/02 04:42:41;;;;;;;4.30;2.08;;;17.10;99.90;;;;;;5054113;28;20025;-42
2023/08/02 04:45:08;;;;;;;3.92;2.33;;;17.10;99.90;;;;;;5067112;28;20025;-42
2023/08/02 04:47:34;;;;;;;5.03;2.30;;;17.10;99.90;;;;;;5054365;28;20185;-42
2023/08/02 04:50:00;;;;;;;2.33;1.90;;;17.20;99.90;;;;;;5067164;28;20465;-43
2023/08/02 04:52:26;;;;;;;5.63;2.50;;;17.20;99.90;;;;;;5056281;28;20036;-42
2023/08/02 04:54:51;;;;;;;3.97;2.20;;;17.20;99.90;;;;;;5066037;28;20016;-42
2023/08/02 04:57:17;;;;;;;3.45;1.98;;;17.20;99.90;;;;;;5058120;28;20033;-42
2023/08/02 04:59:43;;;;;;;3.95;2.10;;;17.20;99.90;;;;;;5062782;28;20043;-42
2023/08/02 05:02:08;;;;;;;3.10;1.85;;;17.30;99.90;;;;;;5061380;28;20100;-42
2023/08/02 05:04:34;;;;;;;3.47;2.00;;;17.30;99.90;;;;;;5059758;28;20040;-42
2023/08/02 05:06:59;;;;;;;4.03;2.17;;;17.30;99.90;;;;;;5064254;28;20859;-42
2023/08/02 05:09:25;;;;;;;3.65;2.08;;;17.30;99.90;;;;;;5057085;28;20044;-42
2023/08/02 05:11:51;;;;;;;2.97;1.63;;;17.30;99.90;;;;;;5064643;28;20601;-42
2023/08/02 05:14:16;;;;;;;2.83;1.90;;;17.40;99.90;;;;;;5058507;28;20378;-42
2023/08/02 05:16:42;;;;;;;3.58;1.70;;;17.40;99.90;;;;;;5064852;28;20162;-42
2023/08/02 05:19:08;;;;;;;4.22;1.98;;;17.40;99.90;;;;;;5054659;28;20024;-42
2023/08/02 05:21:34;;;;;;;2.78;1.83;;;17.40;99.90;;;;;;5066443;28;20035;-42
2023/08/02 05:23:59;;;;;;;3.85;1.83;;;17.50;99.90;;;;;;5053012;28;20427;-42
2023/08/02 05:26:25;;;;;;;4.10;2.55;;;17.50;99.90;;;;;;5067302;28;20025;-42
2023/08/02 05:28:50;;;;;;;2.50;1.80;;;17.50;99.90;;;;;;5053431;28;20056;-43
2023/08/02 05:31:16;;;;;;;2.35;1.60;;;17.60;99.90;;;;;;5065608;28;20420;-42
2023/08/02 05:33:44;;;;;;;5.32;1.95;;;17.60;99.90;;;;;;5055601;28;20025;-43
2023/08/02 05:36:14;;;;;;;2.50;1.50;;;17.60;99.90;;;;;;5063943;28;20032;-42
2023/08/02 05:38:41;;;;;;;1.85;1.55;;;17.70;99.90;;;;;;5056915;28;20509;-42
2023/08/02 05:41:07;;;;;;;3.08;2.08;;;17.60;99.90;;;;;;5062328;28;20029;-42
2023/08/02 05:43:32;;;;;;;4.00;2.20;;;17.60;99.90;;;;;;5059659;28;20519;-41
2023/08/02 05:45:58;;;;;;;2.00;1.83;;;17.60;99.90;;;;;;5058559;28;20420;-41
2023/08/02 05:48:24;;;;;;;4.35;2.17;;;17.60;99.90;;;;;;5062623;28;20025;-42
2023/08/02 05:50:52;;;;;;;4.15;2.25;;;17.60;99.90;;;;;;5055693;28;20115;-41
2023/08/02 05:53:38;;;;;;;3.08;1.80;;;17.60;99.90;;;;;;5062110;28;20120;-41
2023/08/02 05:56:04;;;;;;;3.28;2.17;;;17.60;99.90;;;;;;5055555;28;20036;-41
2023/08/02 05:58:30;;;;;;;2.42;1.80;;;17.60;99.90;;;;;;5063582;28;20024;-41
2023/08/02 06:00:56;;;;;;;3.67;1.90;;;17.60;99.90;;;;;;5053981;28;20445;-41
2023/08/02 06:03:21;;;;;;;4.18;1.95;;;17.50;99.90;;;;;;5063705;28;20040;-41
2023/08/02 06:05:48;;;;;;;2.47;1.85;;;17.60;99.90;;;;;;5054311;28;20379;-42
2023/08/02 06:08:14;;;;;;;2.50;2.03;;;17.50;99.90;;;;;;5063813;28;20407;-42
2023/08/02 06:10:40;;;;;;;3.08;2.10;;;17.50;99.90;;;;;;5052057;28;20100;-41
2023/08/02 06:13:06;;;;;;;3.80;1.90;;;17.50;99.90;;;;;;5063004;28;20135;-42
2023/08/02 06:15:32;;;;;;;1.92;1.60;;;17.50;99.90;;;;;;5057325;28;20032;-41
2023/08/02 06:17:57;;;;;;;3.97;2.00;;;17.50;99.90;;;;;;5044816;28;20047;-41
2023/08/02 06:20:26;;;;;;;2.75;1.98;;;17.40;99.90;;;;;;5055510;28;20087;-42
2023/08/02 06:22:51;;;;;;;3.05;2.20;;;17.40;99.90;;;;;;5045165;28;20111;-41
2023/08/02 06:25:20;;;;;;;2.60;2.15;;;17.40;99.90;;;;;;5052663;28;20174;-42
2023/08/02 06:27:47;;;;;;;2.58;1.75;;;17.30;99.90;;;;;;5046602;28;20036;-41
2023/08/02 06:30:13;;;;;;;3.97;2.28;;;17.30;99.90;;;;;;5050050;28;20024;-42
2023/08/02 06:32:39;;;;;;;4.18;2.38;;;17.30;99.90;;;;;;5049957;28;20033;-41
2023/08/02 06:35:05;;;;;;;3.38;2.10;;;17.30;99.90;;;;;;5047780;28;20021;-41
2023/08/02 06:37:31;;;;;;;4.38;2.20;;;17.20;99.90;;;;;;5053119;28;20624;-41
2023/08/02 06:39:56;;;;;;;2.50;2.08;;;17.20;99.90;;;;;;5046204;28;20029;-42
2023/08/02 06:42:22;;;;;;;2.80;1.73;;;17.20;99.90;;;;;;5054896;28;20154;-42
2023/08/02 06:44:47;;;;;;;4.00;2.15;;;17.20;99.90;;;;;;5046568;28;20093;-42
2023/08/02 06:47:13;;;;;;;4.15;1.60;;;17.20;99.90;;;;;;5054750;28;20028;-41
2023/08/02 06:49:38;;;;;;;2.40;2.03;;;17.20;99.90;;;;;;5043710;28;20021;-41
2023/08/02 06:52:05;;;;;;;2.90;2.05;;;17.30;99.90;;;;;;5056066;28;20040;-41
2023/08/02 06:54:31;;;;;;;3.40;1.98;;;17.30;99.90;;;;;;5042156;28;20096;-41
2023/08/02 06:56:56;;;;;;;3.70;2.17;;;17.30;99.90;;;;;;5053051;28;20222;-42
2023/08/02 06:59:23;;;;;;;2.55;1.98;;;17.30;99.90;;;;;;5042550;28;20078;-42
2023/08/02 07:01:48;;;;;;;3.10;2.03;;;17.30;99.90;;;;;;5053733;28;20061;-42
2023/08/02 07:04:14;;;;;;;4.00;2.20;;;17.30;99.90;;;;;;5043485;28;20039;-41
2023/08/02 07:06:40;;;;;;;2.92;1.98;;;17.30;99.90;;;;;;5051655;28;20028;-42
2023/08/02 07:09:05;;;;;;;2.88;2.40;;;17.40;99.90;;;;;;5045441;28;20057;-41
2023/08/02 07:11:31;;;;;;;3.42;1.95;;;17.30;99.90;;;;;;5047638;28;20029;-42
2023/08/02 07:13:56;;;;;;;2.35;1.80;;;17.40;99.90;;;;;;5055980;28;20518;-41
2023/08/02 07:16:22;;;;;;;2.53;2.00;;;17.40;99.90;;;;;;5058253;28;20040;-41
2023/08/02 07:18:48;;;;;;;3.33;1.83;;;17.40;99.90;;;;;;5053266;28;20025;-42
2023/08/02 07:21:13;;;;;;;2.75;1.88;;;17.40;99.90;;;;;;5060307;28;20028;-42
2023/08/02 07:23:39;;;;;;;2.33;1.88;;;17.40;99.90;;;;;;5050163;28;20036;-42
2023/08/02 07:26:05;;;;;;;4.03;1.80;;;17.50;99.90;;;;;;5060947;28;20507;-42
2023/08/02 07:28:31;;;;;;;1.90;1.55;;;17.50;99.90;;;;;;5051633;28;20020;-42
2023/08/02 07:31:07;;;;;;;3.35;1.50;;;17.50;99.90;;;;;;5061937;28;20147;-42
2023/08/02 07:33:32;;;;;;;1.40;1.30;;;17.50;99.90;;;;;;5050709;28;20443;-40
2023/08/02 07:35:58;;;;;;;2.15;1.35;;;17.50;99.90;;;;;;5062268;28;20474;-42
2023/08/02 07:38:23;;;;;;;1.50;1.40;;;17.60;99.90;;;;;;5049048;28;20052;-42
2023/08/02 07:40:50;;;;;;;1.48;1.33;;;17.60;99.90;;;;;;5061291;28;20032;-42
2023/08/02 07:43:21;;;;;;;1.85;1.35;;;17.60;99.90;;;;;;5049617;28;20795;-42
2023/08/02 07:45:47;;;;;;;1.90;1.30;;;17.70;99.90;;;;;;5041663;28;20063;-42
2023/08/02 07:48:15;;;;;;;1.42;1.33;;;17.70;99.90;;;;;;5051554;28;20021;-42
2023/08/02 07:50:41;;;;;;;1.10;1.00;;;17.80;99.90;;;;;;5044110;28;20044;-42
2023/08/02 07:53:07;;;;;;;2.38;1.30;;;17.80;99.90;;;;;;5048564;28;20053;-42
2023/08/02 07:55:38;;;;;;;1.42;1.20;;;17.80;99.90;;;;;;5046658;28;20018;-42
2023/08/02 07:58:06;;;;;;;1.65;1.30;;;17.80;99.90;;;;;;5050327;28;20020;-42
2023/08/02 08:00:32;;;;;;;2.40;1.23;;;17.80;99.90;;;;;;5050508;28;20705;-41
2023/08/02 08:02:58;;;;;;;1.08;0.90;;;17.80;99.90;;;;;;5049905;28;20055;-41
2023/08/02 08:05:25;;;;;;;1.25;1.15;;;17.80;99.90;;;;;;5054805;28;20458;-41
2023/08/02 08:07:51;;;;;;;1.42;1.10;;;17.80;99.90;;;;;;5046006;28;20044;-41
2023/08/02 08:10:17;;;;;;;1.65;1.40;;;17.90;99.90;;;;;;5056614;28;20566;-44
2023/08/02 08:12:42;;;;;;;1.02;0.90;;;17.80;99.90;;;;;;5043399;28;20041;-42
2023/08/02 08:15:08;;;;;;;1.15;1.00;;;17.90;99.90;;;;;;5063815;28;20024;-42
2023/08/02 08:17:34;;;;;;;1.02;0.80;;;17.90;99.90;;;;;;5060581;28;20377;-41
2023/08/02 08:19:59;;;;;;;1.60;0.90;;;18.00;99.90;;;;;;5060852;28;20009;-42
2023/08/02 08:22:29;;;;;;;0.88;0.82;;;18.00;99.90;;;;;;5065086;28;20411;-43
2023/08/02 08:24:55;;;;;;;0.98;0.80;;;18.00;99.90;;;;;;5055255;28;20021;-42
2023/08/02 08:27:23;;;;;;;0.80;0.80;;;17.90;99.90;;;;;;5075537;28;20074;-42
2023/08/02 08:29:49;;;;;;;1.00;0.85;;;18.00;99.90;;;;;;5063175;28;20551;-41
2023/08/02 08:32:16;;;;;;;0.82;0.80;;;18.00;99.90;;;;;;5045532;28;20052;-41
2023/08/02 08:34:42;;;;;;;0.50;0.50;;;18.00;99.90;;;;;;5052969;28;20021;-42
2023/08/02 08:37:08;;;;;;;0.77;0.70;;;17.90;99.90;;;;;;5047430;28;20059;-42
2023/08/02 08:39:35;;;;;;;0.95;0.70;;;18.00;99.90;;;;;;5051294;28;20016;-41
2023/08/02 08:42:06;;;;;;;0.70;0.70;;;18.00;99.90;;;;;;5049705;28;20108;-43
2023/08/02 08:44:35;;;;;;;0.60;0.60;;;18.00;99.90;;;;;;5050350;28;20032;-41
2023/08/02 08:47:03;;;;;;;0.82;0.80;;;18.00;99.90;;;;;;5051186;28;20590;-41
2023/08/02 08:49:29;;;;;;;0.70;0.70;;;18.10;99.90;;;;;;5047949;28;20070;-42
2023/08/02 08:51:58;;;;;;;0.63;0.63;;;18.10;99.90;;;;;;5053431;28;20657;-42
2023/08/02 08:54:26;;;;;;;1.13;0.80;;;18.10;99.90;;;;;;5046758;28;20053;-42
2023/08/02 08:56:53;;;;;;;0.70;0.63;;;18.10;99.90;;;;;;5054822;28;20033;-42
2023/08/02 08:59:19;;;;;;;1.02;0.80;;;18.10;99.90;;;;;;5045521;28;20235;-42
2023/08/02 09:01:45;;;;;;;0.60;0.60;;;18.00;99.90;;;;;;5050634;28;20797;-42
2023/08/02 09:04:11;;;;;;;0.95;0.68;;;18.10;99.90;;;;;;5072200;28;20039;-42
2023/08/02 09:06:36;;;;;;;0.77;0.77;;;18.10;99.90;;;;;;5051822;28;20025;-42
2023/08/02 09:09:03;;;;;;;0.60;0.60;;;18.00;99.90;;;;;;5062830;28;20139;-42
2023/08/02 09:11:29;;;;;;;0.50;0.50;;;18.00;99.90;;;;;;5052282;28;20063;-41
2023/08/02 09:14:12;;;;;;;0.95;0.60;;;18.10;99.90;;;;;;5059629;28;20476;-42
2023/08/02 09:16:57;;;;;;;0.82;0.80;;;18.10;99.90;;;;;;5058256;28;20488;-44
2023/08/02 09:19:26;;;;;;;0.55;0.55;;;18.10;99.90;;;;;;5064330;28;20029;-42
2023/08/02 09:22:08;;;;;;;0.70;0.60;;;18.10;99.90;;;;;;5054472;28;20041;-42
2023/08/02 09:24:37;;;;;;;0.55;0.50;;;18.10;99.90;;;;;;5064804;28;20070;-42
2023/08/02 09:27:14;;;;;;;0.50;0.50;;;18.10;99.90;;;;;;5049384;28;20036;-40
2023/08/02 09:29:51;;;;;;;0.82;0.60;;;18.30;99.90;;;;;;5084051;28;20080;-42
2023/08/02 09:32:22;;;;;;;0.47;0.40;;;18.40;99.90;;;;;;5059110;28;20028;-41
2023/08/02 09:34:53;;;;;;;0.40;0.40;;;18.50;99.90;;;;;;5046157;28;20040;-41
2023/08/02 09:37:31;;;;;;;0.57;0.43;;;18.60;99.90;;;;;;5057921;28;20059;-42
2023/08/02 09:40:09;;;;;;;0.52;0.43;;;18.70;99.90;;;;;;5048550;28;20510;-42
2023/08/02 09:42:35;;;;;;;0.60;0.60;;;18.80;99.90;;;;;;5059862;28;20119;-42
2023/08/02 09:45:06;;;;;;;0.73;0.73;;;18.80;99.90;;;;;;5065241;28;20103;-42
2023/08/02 09:47:31;;;;;;;1.13;0.65;;;18.90;99.90;;;;;;5052785;28;20392;-42
2023/08/02 09:50:10;;;;;;;0.60;0.60;;;19.00;99.90;;;;;;5061453;28;20023;-43
2023/08/02 09:52:40;;;;;;;0.82;0.65;;;19.10;99.90;;;;;;5056185;28;20520;-41
2023/08/02 09:55:06;;;;;;;0.50;0.50;;;19.30;99.90;;;;;;5080247;28;20068;-41
2023/08/02 09:57:32;;;;;;;0.60;0.60;;;19.50;99.90;;;;;;5067182;28;20048;-42
2023/08/02 10:00:06;;;;;;;0.60;0.57;;;19.80;99.90;;;;;;5047573;28;20053;-41
2023/08/02 10:02:34;;;;;;;1.10;0.80;;;20.00;99.90;;;;;;5054095;28;20032;-41
2023/08/02 10:05:02;;;;;;;0.65;0.65;;;20.20;99.90;;;;;;5049450;28;20025;-41
2023/08/02 10:07:47;;;;;;;0.80;0.80;;;20.30;99.90;;;;;;5051822;28;20016;-41
2023/08/02 10:10:18;;;;;;;0.70;0.70;;;20.40;99.90;;;;;;5048894;28;20029;-42
2023/08/02 10:12:51;;;;;;;1.25;1.00;;;20.40;99.90;;;;;;5052492;28;20032;-41
2023/08/02 10:15:23;;;;;;;0.68;0.68;;;20.40;99.90;;;;;;5049464;28;20040;-42
2023/08/02 10:17:49;;;;;;;;;;;20.50;99.90;;;;;;5053401;28;20020;-42
2023/08/02 10:20:18;;;;;;;0.57;0.57;;;20.60;99.90;;;;;;5050619;28;19909;-42
2023/08/02 10:22:48;;;;;;;0.70;0.70;;;20.70;99.90;;;;;;5050381;28;20730;-41
2023/08/02 10:25:18;;;;;;;1.40;0.90;;;20.70;99.90;;;;;;5051956;28;20044;-42
2023/08/02 10:27:46;;;;;;;1.27;0.90;;;20.80;99.90;;;;;;5047020;28;20082;-41
2023/08/02 10:30:13;;;;;;;1.02;0.93;;;20.70;99.90;;;;;;5054126;28;20024;-42
2023/08/02 10:32:41;;;;;;;0.80;0.80;;;20.70;99.90;;;;;;5046472;28;20060;-42
2023/08/02 10:35:07;;;;;;;0.90;0.90;;;20.70;99.90;;;;;;5052511;28;20511;-42
2023/08/02 10:37:53;;;;;;;2.03;1.20;;;20.70;99.90;;;;;;5046434;28;20056;-41
2023/08/02 10:40:22;;;;;;;1.20;1.10;;;20.80;99.90;;;;;;5054235;28;20035;-42
2023/08/02 10:43:07;;;;;;;0.90;0.90;;;20.90;99.90;;;;;;5063431;28;20075;-42
2023/08/02 10:45:33;;;;;;;0.60;0.60;;;20.90;99.90;;;;;;5050382;28;20553;-42
2023/08/02 10:48:27;;;;;;;0.80;0.80;;;21.10;99.90;;;;;;5058214;28;20028;-42
2023/08/02 10:50:53;;;;;;;1.00;0.82;;;21.20;99.90;;;;;;5051538;28;20031;-42
2023/08/02 10:53:19;;;;;;;0.82;0.82;;;21.40;99.90;;;;;;5060447;28;20480;-41
2023/08/02 10:56:16;;;;;;;1.17;1.17;;;21.40;99.90;;;;;;5050067;28;20043;-42
2023/08/02 10:58:51;;;;;;;2.53;1.02;;;21.50;99.90;;;;;;5057538;28;20039;-41
2023/08/02 11:01:16;;;;;;;1.10;1.00;;;21.60;99.90;;;;;;5052870;28;20017;-41
2023/08/02 11:03:43;;;;;;;1.33;1.10;;;21.60;99.90;;;;;;5059897;28;20020;-42
2023/08/02 11:06:26;;;;;;;0.80;0.80;;;21.70;99.90;;;;;;5050216;28;20070;-41
2023/08/02 11:08:52;;;;;;;0.90;0.90;;;21.70;99.90;;;;;;5057771;28;20052;-42
2023/08/02 11:11:30;;;;;;;0.73;0.73;;;21.80;99.90;;;;;;5049069;28;20029;-42
2023/08/02 11:13:56;;;;;;;1.02;1.00;;;21.80;99.90;;;;;;5061030;28;20534;-42
2023/08/02 11:16:22;;;;;;;0.90;0.90;;;22.00;99.90;;;;;;5047489;28;20112;-42
2023/08/02 11:18:49;;;;;;;1.00;0.80;;;22.00;99.90;;;;;;5058620;28;20055;-42
2023/08/02 11:21:15;;;;;;;0.88;0.82;;;22.00;99.90;;;;;;5050719;28;20020;-42
2023/08/02 11:23:41;;;;;;;0.80;0.80;;;21.90;99.90;;;;;;5060680;28;20743;-42
2023/08/02 11:26:12;;;;;;;0.70;0.70;;;21.80;99.90;;;;;;5046513;28;20039;-41
2023/08/02 11:28:42;;;;;;;0.77;0.77;;;21.80;99.90;;;;;;5062165;28;20136;-42
2023/08/02 11:31:08;;;;;;;1.05;0.93;;;21.70;99.90;;;;;;5047943;28;20028;-42
2023/08/02 11:33:35;;;;;;;0.80;0.80;;;21.60;99.90;;;;;;5064796;28;20035;-42
2023/08/02 11:36:00;;;;;;;0.65;0.65;;;21.50;99.90;;;;;;5053739;28;20032;-42
2023/08/02 11:38:26;;;;;;;0.60;0.60;;;21.40;99.90;;;;;;5064334;28;20020;-42
2023/08/02 11:40:52;;;;;;;0.80;0.80;;;21.40;99.90;;;;;;5055949;28;20013;-43
2023/08/02 11:43:17;;;;;;;0.85;0.85;;;21.20;99.90;;;;;;5061318;28;20357;-43
2023/08/02 11:45:43;;;;;;;0.75;0.60;;;21.20;99.90;;;;;;5057892;28;20109;-43
2023/08/02 11:48:27;;;;;;;0.80;0.80;;;21.10;99.90;;;;;;5059422;28;20031;-42
2023/08/02 11:50:54;;;;;;;0.90;0.90;;;21.10;99.90;;;;;;5055772;28;20024;-42
2023/08/02 11:53:19;;;;;;;0.90;0.90;;;21.10;99.90;;;;;;5055968;28;20045;-42
2023/08/02 11:55:45;;;;;;;0.90;0.90;;;21.10;99.90;;;;;;5056738;28;20096;-41
2023/08/02 11:58:11;;;;;;;0.80;0.80;;;21.10;99.90;;;;;;5052822;28;20028;-42
2023/08/02 12:00:38;;;;;;;0.85;0.85;;;21.10;99.90;;;;;;5059918;28;20031;-42
2023/08/02 12:03:08;;;;;;;1.73;0.98;;;21.20;99.90;;;;;;5049858;28;20021;-42
2023/08/02 12:05:34;;;;;;;0.90;0.90;;;21.30;99.90;;;;;;5059756;28;20025;-42
2023/08/02 12:08:17;;;;;;;0.85;0.85;;;21.50;99.90;;;;;;5050982;28;20040;-41
2023/08/02 12:10:43;;;;;;;1.08;1.08;;;21.80;99.90;;;;;;5061106;28;20480;-42
2023/08/02 12:13:10;;;;;;;1.33;0.88;;;22.00;99.90;;;;;;5051350;28;20060;-41
2023/08/02 12:15:37;;;;;;;1.88;0.90;;;22.10;99.90;;;;;;5045525;28;20099;-42
2023/08/02 12:18:06;;;;;;;0.80;0.80;;;22.20;99.90;;;;;;5053625;28;20447;-42
2023/08/02 12:20:33;;;;;;;0.80;0.80;;;22.20;99.90;;;;;;5041698;28;20053;-41
2023/08/02 12:22:59;;;;;;;0.90;0.90;;;22.10;99.90;;;;;;5055168;28;20116;-41
2023/08/02 12:25:25;;;;;;;0.82;0.80;;;22.00;99.90;;;;;;5044231;28;20200;-42
2023/08/02 12:28:09;;;;;;;1.05;0.90;;;21.90;99.90;;;;;;5054162;28;20036;-42
2023/08/02 12:30:38;;;;;;;0.90;0.90;;;21.90;99.90;;;;;;5042647;28;20086;-41
2023/08/02 12:33:03;;;;;;;0.80;0.80;;;21.90;99.90;;;;;;5053872;28;20457;-42
2023/08/02 12:35:32;;;;;;;0.95;0.75;;;21.90;99.90;;;;;;5042532;28;20024;-42
2023/08/02 12:37:57;;;;;;;0.65;0.50;;;22.00;99.90;;;;;;5052955;28;20020;-41
2023/08/02 12:40:23;;;;;;;1.08;0.82;;;22.00;99.90;;;;;;5045599;28;20020;-41
2023/08/02 12:42:48;;;;;;;2.90;1.40;;;22.00;99.90;;;;;;5051716;28;20021;-41
2023/08/02 12:45:14;;;;;;;3.30;1.08;;;22.00;99.90;;;;;;5046867;28;20028;-41
2023/08/02 12:47:40;;;;;;;2.50;1.02;;;22.00;99.90;;;;;;5048974;28;20020;-41
2023/08/02 12:50:06;;;;;;;2.28;0.90;;;22.10;99.90;;;;;;5050650;28;20037;-41